createdAt,value
2023-09-09T00:01:33.449Z,17.25
2023-09-09T00:04:00.713Z,18.38
2023-09-09T00:06:27.343Z,17.17
2023-09-09T00:08:53.940Z,16.48
2023-09-09T00:11:20.449Z,16.23
2023-09-09T00:13:47.087Z,16.33
2023-09-09T00:16:14.226Z,19.05
2023-09-09T00:18:40.893Z,19.10
2023-09-09T00:21:07.353Z,16.75
2023-09-09T00:23:33.867Z,22.50
2023-09-09T00:26:00.443Z,17.95
2023-09-09T00:28:26.971Z,19.45
2023-09-09T00:30:53.454Z,15.27
2023-09-09T00:33:20.011Z,17.48
2023-09-09T00:35:46.532Z,15.70
2023-09-09T00:38:15.064Z,16.30
2023-09-09T00:40:45.893Z,18.60
2023-09-09T00:43:12.446Z,13.82
2023-09-09T00:45:40.373Z,16.25
2023-09-09T00:48:07.167Z,15.53
2023-09-09T00:50:33.849Z,15.73
2023-09-09T00:53:00.585Z,15.25
2023-09-09T00:55:28.325Z,15.63
2023-09-09T00:57:54.903Z,15.38
2023-09-09T01:00:21.382Z,17.40
2023-09-09T01:02:48.038Z,19.60
2023-09-09T01:05:16.287Z,14.75
2023-09-09T01:07:47.000Z,16.90
2023-09-09T01:10:15.081Z,16.73
2023-09-09T01:12:43.351Z,16.63
2023-09-09T01:15:11.149Z,18.67
2023-09-09T01:17:38.971Z,18.45
2023-09-09T01:20:13.372Z,16.20
2023-09-09T01:22:41.465Z,16.85
2023-09-09T01:25:08.608Z,16.23
2023-09-09T01:27:35.170Z,20.13
2023-09-09T01:30:01.902Z,20.63
2023-09-09T01:32:28.496Z,20.05
2023-09-09T01:34:55.004Z,19.02
2023-09-09T01:37:21.569Z,21.70
2023-09-09T01:39:48.979Z,20.70
2023-09-09T01:42:18.577Z,25.00
2023-09-09T01:44:46.884Z,23.77
2023-09-09T01:47:14.920Z,26.40
2023-09-09T01:49:42.933Z,26.55
2023-09-09T01:52:09.846Z,28.65
2023-09-09T01:54:36.897Z,27.55
2023-09-09T01:57:03.662Z,29.20
2023-09-09T01:59:30.237Z,26.88
2023-09-09T02:01:57.216Z,24.80
2023-09-09T02:04:23.803Z,22.50
2023-09-09T02:06:50.284Z,21.60
2023-09-09T02:09:16.931Z,22.50
2023-09-09T02:11:43.439Z,24.52
2023-09-09T02:14:09.997Z,23.50
2023-09-09T02:16:36.495Z,25.80
2023-09-09T02:19:03.079Z,30.00
2023-09-09T02:21:30.503Z,30.00
2023-09-09T02:23:57.063Z,27.05
2023-09-09T02:26:23.592Z,30.17
2023-09-09T02:28:50.655Z,30.48
2023-09-09T02:31:17.330Z,31.65
2023-09-09T02:33:43.879Z,31.85
2023-09-09T02:36:10.446Z,33.05
2023-09-09T02:38:37.702Z,34.80
2023-09-09T02:41:04.287Z,34.78
2023-09-09T02:43:31.269Z,40.80
2023-09-09T02:45:57.884Z,39.80
2023-09-09T02:48:24.472Z,44.08
2023-09-09T02:50:50.992Z,42.67
2023-09-09T02:53:17.505Z,45.63
2023-09-09T02:55:43.967Z,42.25
2023-09-09T02:58:13.841Z,44.28
2023-09-09T03:00:40.476Z,50.15
2023-09-09T03:03:07.557Z,45.27
2023-09-09T03:05:37.540Z,45.28
2023-09-09T03:08:05.815Z,47.90
2023-09-09T03:10:32.834Z,43.72
2023-09-09T03:13:00.077Z,46.00
2023-09-09T03:15:26.635Z,47.33
2023-09-09T03:17:53.208Z,50.90
2023-09-09T03:20:19.795Z,50.10
2023-09-09T03:22:46.301Z,50.47
2023-09-09T03:25:12.783Z,47.55
2023-09-09T03:27:39.332Z,50.37
2023-09-09T03:30:06.382Z,47.50
2023-09-09T03:32:32.916Z,42.88
2023-09-09T03:34:59.366Z,45.15
2023-09-09T03:37:26.217Z,45.58
2023-09-09T03:39:52.840Z,41.67
2023-09-09T03:42:19.704Z,43.78
2023-09-09T03:44:46.175Z,47.28
2023-09-09T03:47:12.633Z,47.75
2023-09-09T03:49:39.127Z,46.72
2023-09-09T03:52:05.898Z,50.97
2023-09-09T03:54:32.501Z,44.72
2023-09-09T03:56:58.960Z,52.00
2023-09-09T03:59:30.382Z,52.83
2023-09-09T04:01:57.996Z,44.50
2023-09-09T04:04:25.142Z,50.67
2023-09-09T04:06:51.790Z,46.05
2023-09-09T04:09:23.961Z,50.20
2023-09-09T04:11:50.632Z,49.00
2023-09-09T04:14:18.528Z,49.75
2023-09-09T04:16:45.162Z,53.67
2023-09-09T04:19:11.780Z,47.40
2023-09-09T04:21:38.235Z,52.72
2023-09-09T04:24:05.037Z,55.03
2023-09-09T04:26:31.510Z,53.58
2023-09-09T04:28:58.043Z,56.80
2023-09-09T04:31:24.525Z,56.92
2023-09-09T04:33:51.071Z,54.50
2023-09-09T04:36:17.578Z,56.92
2023-09-09T04:38:44.284Z,50.60
2023-09-09T04:41:10.855Z,55.83
2023-09-09T04:43:37.551Z,51.63
2023-09-09T04:46:04.319Z,56.95
2023-09-09T04:48:31.021Z,54.42
2023-09-09T04:50:57.796Z,50.15
2023-09-09T04:53:24.271Z,47.00
2023-09-09T04:55:50.777Z,49.20
2023-09-09T04:58:17.380Z,51.50
2023-09-09T05:00:43.858Z,50.58
2023-09-09T05:03:10.487Z,51.95
2023-09-09T05:05:37.086Z,46.43
2023-09-09T05:08:03.800Z,49.78
2023-09-09T05:10:31.268Z,44.67
2023-09-09T05:12:57.920Z,46.22
2023-09-09T05:15:24.455Z,51.92
2023-09-09T05:17:51.045Z,48.80
2023-09-09T05:20:17.843Z,51.60
2023-09-09T05:22:44.399Z,56.13
2023-09-09T05:25:10.915Z,50.40
2023-09-09T05:27:37.435Z,48.75
2023-09-09T05:30:04.991Z,54.00
2023-09-09T05:32:31.572Z,51.42
2023-09-09T05:34:58.100Z,45.10
2023-09-09T05:37:27.704Z,52.42
2023-09-09T05:39:54.248Z,51.75
2023-09-09T05:42:20.689Z,51.57
2023-09-09T05:44:47.160Z,51.97
2023-09-09T05:47:13.708Z,50.45
2023-09-09T05:49:40.726Z,50.08
2023-09-09T05:52:08.227Z,58.88
2023-09-09T05:54:34.895Z,70.33
2023-09-09T05:57:01.695Z,69.47
2023-09-09T05:59:28.297Z,76.88
2023-09-09T06:01:55.108Z,70.45
2023-09-09T06:04:22.387Z,83.85
2023-09-09T06:06:49.508Z,82.97
2023-09-09T06:09:16.379Z,83.97
2023-09-09T06:11:43.009Z,97.22
2023-09-09T06:14:09.653Z,88.18
2023-09-09T06:16:36.780Z,92.65
2023-09-09T06:19:03.363Z,126.17
2023-09-09T06:21:30.040Z,117.35
2023-09-09T06:23:56.481Z,172.63
2023-09-09T06:26:22.975Z,165.05
2023-09-09T06:28:49.683Z,192.38
2023-09-09T06:31:16.252Z,250.13
2023-09-09T06:33:44.954Z,161.52
2023-09-09T06:36:12.222Z,89.35
2023-09-09T06:38:38.867Z,167.48
2023-09-09T06:41:05.773Z,90.47
2023-09-09T06:43:32.241Z,78.77
2023-09-09T06:46:00.983Z,122.05
2023-09-09T06:48:27.805Z,135.50
2023-09-09T06:50:54.380Z,92.07
2023-09-09T06:53:20.926Z,81.63
2023-09-09T06:55:48.564Z,80.40
2023-09-09T06:58:15.387Z,118.57
2023-09-09T07:00:44.139Z,99.70
2023-09-09T07:03:10.883Z,78.50
2023-09-09T07:05:37.462Z,83.75
2023-09-09T07:08:04.292Z,81.37
2023-09-09T07:10:31.772Z,78.93
2023-09-09T07:12:58.591Z,74.57
2023-09-09T07:15:25.278Z,73.78
2023-09-09T07:17:51.901Z,76.10
2023-09-09T07:20:18.500Z,80.77
2023-09-09T07:22:45.099Z,79.90
2023-09-09T07:25:11.745Z,76.72
2023-09-09T07:27:38.341Z,83.20
2023-09-09T07:30:06.139Z,78.63
2023-09-09T07:32:33.360Z,76.77
2023-09-09T07:35:04.198Z,81.57
2023-09-09T07:37:30.845Z,77.70
2023-09-09T07:40:01.824Z,81.28
2023-09-09T07:42:28.583Z,77.03
2023-09-09T07:44:55.052Z,75.93
2023-09-09T07:47:22.270Z,84.07
2023-09-09T07:49:48.969Z,84.13
2023-09-09T07:52:15.940Z,83.43
2023-09-09T07:54:42.537Z,83.35
2023-09-09T07:57:09.074Z,78.87
2023-09-09T07:59:35.568Z,85.50
2023-09-09T08:02:03.888Z,80.28
2023-09-09T08:04:30.556Z,83.03
2023-09-09T08:06:57.626Z,82.45
2023-09-09T08:09:24.281Z,78.27
2023-09-09T08:11:50.798Z,78.82
2023-09-09T08:14:19.319Z,79.53
2023-09-09T08:16:46.314Z,71.97
2023-09-09T08:19:13.099Z,81.95
2023-09-09T08:21:39.728Z,74.43
2023-09-09T08:24:06.376Z,74.30
2023-09-09T08:26:33.024Z,72.43
2023-09-09T08:29:00.070Z,68.30
2023-09-09T08:31:27.221Z,63.20
2023-09-09T08:33:53.950Z,65.27
2023-09-09T08:36:20.458Z,64.63
2023-09-09T08:38:47.032Z,50.35
2023-09-09T08:41:39.536Z,46.17
2023-09-09T08:44:21.130Z,53.70
2023-09-09T08:46:48.185Z,55.03
2023-09-09T08:49:18.300Z,48.13
2023-09-09T08:51:59.651Z,49.47
2023-09-09T08:54:27.408Z,47.95
2023-09-09T08:56:54.661Z,48.67
2023-09-09T08:59:22.755Z,45.97
2023-09-09T09:01:51.881Z,41.90
2023-09-09T09:04:19.463Z,41.85
2023-09-09T09:06:49.919Z,49.78
2023-09-09T09:09:17.920Z,32.37
2023-09-09T09:11:45.207Z,38.58
2023-09-09T09:14:11.812Z,34.83
2023-09-09T09:16:42.562Z,29.80
2023-09-09T09:19:19.102Z,34.30
2023-09-09T09:21:45.745Z,27.88
2023-09-09T09:24:12.306Z,29.00
2023-09-09T09:26:38.798Z,28.67
2023-09-09T09:29:08.420Z,32.55
2023-09-09T09:31:35.019Z,33.47
2023-09-09T09:34:01.545Z,32.57
2023-09-09T09:36:28.590Z,28.83
2023-09-09T09:38:57.409Z,26.88
2023-09-09T09:41:25.053Z,28.92
2023-09-09T09:43:52.225Z,27.77
2023-09-09T09:46:22.935Z,27.90
2023-09-09T09:48:50.395Z,25.95
2023-09-09T09:51:17.411Z,25.15
2023-09-09T09:53:50.027Z,23.92
2023-09-09T09:56:17.421Z,21.80
2023-09-09T09:58:45.576Z,23.83
2023-09-09T10:01:12.514Z,21.10
2023-09-09T10:03:44.956Z,19.65
2023-09-09T10:06:13.454Z,18.50
2023-09-09T10:08:47.553Z,18.13
2023-09-09T10:11:18.248Z,20.13
2023-09-09T10:13:54.339Z,15.70
2023-09-09T10:16:21.765Z,15.60
2023-09-09T10:18:50.973Z,16.30
2023-09-09T10:21:31.764Z,19.23
2023-09-09T10:24:07.292Z,17.37
2023-09-09T10:26:36.040Z,15.00
2023-09-09T10:29:03.293Z,17.33
2023-09-09T10:31:30.690Z,15.40
2023-09-09T10:34:00.268Z,13.65
2023-09-09T10:36:28.066Z,17.20
2023-09-09T10:38:59.396Z,13.50
2023-09-09T10:41:25.959Z,17.98
2023-09-09T10:43:52.489Z,14.68
2023-09-09T10:46:33.833Z,14.95
2023-09-09T10:49:04.665Z,15.30
2023-09-09T10:51:45.641Z,16.60
2023-09-09T10:54:13.873Z,20.52
2023-09-09T10:57:01.160Z,19.30
2023-09-09T10:59:30.409Z,17.45
2023-09-09T11:02:16.723Z,15.37
2023-09-09T11:04:43.693Z,13.57
2023-09-09T11:07:16.724Z,17.02
2023-09-09T11:09:54.095Z,15.55
2023-09-09T11:12:27.263Z,15.23
2023-09-09T11:15:08.230Z,14.90
2023-09-09T11:17:42.249Z,17.17
2023-09-09T11:20:12.495Z,16.02
2023-09-09T11:22:43.164Z,12.73
2023-09-09T11:25:10.132Z,14.77
2023-09-09T11:27:38.415Z,15.97
2023-09-09T11:30:05.864Z,13.25
2023-09-09T11:32:33.638Z,16.88
2023-09-09T11:35:00.492Z,10.45
2023-09-09T11:37:30.122Z,10.15
2023-09-09T11:39:57.396Z,8.57
2023-09-09T11:42:24.080Z,13.43
2023-09-09T11:44:50.902Z,11.25
2023-09-09T11:47:18.752Z,11.95
2023-09-09T11:49:52.246Z,16.15
2023-09-09T11:52:24.413Z,14.40
2023-09-09T11:54:51.317Z,12.23
2023-09-09T11:57:17.976Z,12.70
2023-09-09T11:59:54.452Z,11.57
2023-09-09T12:02:27.072Z,12.77
2023-09-09T12:04:59.252Z,13.03
2023-09-09T12:07:33.821Z,12.77
2023-09-09T12:10:01.491Z,12.68
2023-09-09T12:12:29.318Z,11.88
2023-09-09T12:14:59.063Z,11.23
2023-09-09T12:17:25.903Z,14.37
2023-09-09T12:19:56.910Z,15.77
2023-09-09T12:22:48.170Z,12.07
2023-09-09T12:25:34.546Z,16.70
2023-09-09T12:28:01.220Z,10.77
2023-09-09T12:30:35.337Z,11.70
2023-09-09T12:33:15.637Z,9.43
2023-09-09T12:35:49.288Z,15.98
2023-09-09T12:38:16.449Z,11.32
2023-09-09T12:40:53.531Z,14.40
2023-09-09T12:43:26.139Z,12.37
2023-09-09T12:45:57.470Z,18.45
2023-09-09T12:48:24.381Z,14.73
2023-09-09T12:50:50.868Z,13.20
2023-09-09T12:53:18.561Z,14.82
2023-09-09T12:55:45.149Z,13.00
2023-09-09T12:58:11.950Z,11.05
2023-09-09T13:00:38.546Z,15.52
2023-09-09T13:03:05.493Z,13.07
2023-09-09T13:05:33.153Z,10.65
2023-09-09T13:07:59.627Z,12.57
2023-09-09T13:10:26.334Z,16.95
2023-09-09T13:12:54.416Z,12.88
2023-09-09T13:15:22.149Z,11.98
2023-09-09T13:17:48.609Z,12.07
2023-09-09T13:20:15.083Z,14.07
2023-09-09T13:22:41.541Z,12.40
2023-09-09T13:25:08.631Z,14.00
2023-09-09T13:27:38.707Z,12.65
2023-09-09T13:30:06.420Z,17.13
2023-09-09T13:32:33.067Z,15.60
2023-09-09T13:35:00.098Z,12.63
2023-09-09T13:37:27.910Z,11.30
2023-09-09T13:39:54.776Z,12.18
2023-09-09T13:42:21.892Z,12.23
2023-09-09T13:45:10.164Z,9.93
2023-09-09T13:47:35.395Z,8.93
2023-09-09T13:50:04.324Z,13.10
2023-09-09T13:52:31.245Z,12.68
2023-09-09T13:54:57.736Z,10.20
2023-09-09T13:57:25.232Z,9.77
2023-09-09T13:59:52.274Z,9.23
2023-09-09T14:02:19.060Z,8.23
2023-09-09T14:04:45.684Z,9.43
2023-09-09T14:07:12.263Z,9.65
2023-09-09T14:09:38.895Z,12.53
2023-09-09T14:12:05.872Z,8.45
2023-09-09T14:14:35.162Z,10.40
2023-09-09T14:17:01.790Z,9.18
2023-09-09T14:19:29.196Z,10.00
2023-09-09T14:21:55.707Z,10.97
2023-09-09T14:24:22.286Z,9.52
2023-09-09T14:26:48.828Z,11.95
2023-09-09T14:29:15.282Z,11.27
2023-09-09T14:31:41.752Z,9.23
2023-09-09T14:34:09.218Z,12.43
2023-09-09T14:36:35.800Z,9.45
2023-09-09T14:39:02.512Z,7.63
2023-09-09T14:41:29.104Z,10.10
2023-09-09T14:43:55.663Z,16.05
2023-09-09T14:46:25.258Z,9.87
2023-09-09T14:49:02.808Z,7.63
2023-09-09T14:51:34.082Z,14.85
2023-09-09T14:54:05.838Z,15.38
2023-09-09T14:56:33.392Z,10.38
2023-09-09T14:58:59.944Z,13.80
2023-09-09T15:01:26.878Z,9.90
2023-09-09T15:03:53.421Z,11.10
2023-09-09T15:06:19.960Z,9.95
2023-09-09T15:08:46.605Z,8.48
2023-09-09T15:11:13.169Z,10.67
2023-09-09T15:13:39.698Z,11.38
2023-09-09T15:16:07.739Z,8.70
2023-09-09T15:18:35.884Z,8.98
2023-09-09T15:21:03.980Z,8.90
2023-09-09T15:23:31.275Z,8.93
2023-09-09T15:25:57.893Z,8.57
2023-09-09T15:28:24.413Z,10.00
2023-09-09T15:30:56.373Z,12.82
2023-09-09T15:33:23.683Z,10.52
2023-09-09T15:35:59.829Z,10.97
2023-09-09T15:38:26.510Z,8.90
2023-09-09T15:40:53.521Z,9.95
2023-09-09T15:43:20.366Z,10.88
2023-09-09T15:45:49.788Z,8.30
2023-09-09T15:48:17.057Z,9.07
2023-09-09T15:50:43.730Z,8.55
2023-09-09T15:53:10.337Z,9.68
2023-09-09T15:55:37.004Z,11.65
2023-09-09T15:58:05.058Z,10.65
2023-09-09T16:00:32.510Z,8.27
2023-09-09T16:02:59.279Z,9.43
2023-09-09T16:05:27.089Z,9.85
2023-09-09T16:07:53.694Z,9.68
2023-09-09T16:10:20.285Z,13.15
2023-09-09T16:12:46.924Z,9.80
2023-09-09T16:15:13.443Z,8.75
2023-09-09T16:17:41.225Z,14.27
2023-09-09T16:20:08.974Z,9.43
2023-09-09T16:22:35.628Z,11.25
2023-09-09T16:25:02.598Z,11.57
2023-09-09T16:27:29.180Z,9.00
2023-09-09T16:29:55.684Z,14.75
2023-09-09T16:32:22.180Z,11.95
2023-09-09T16:34:48.888Z,12.95
2023-09-09T16:37:15.713Z,12.93
2023-09-09T16:39:42.172Z,9.32
2023-09-09T16:42:08.708Z,13.50
2023-09-09T16:44:35.268Z,32.35
2023-09-09T16:47:01.947Z,14.45
2023-09-09T16:49:28.593Z,9.43
2023-09-09T16:51:55.043Z,11.88
2023-09-09T16:54:21.639Z,11.40
2023-09-09T16:56:50.303Z,9.18
2023-09-09T16:59:16.810Z,12.13
2023-09-09T17:01:43.878Z,11.73
2023-09-09T17:04:10.592Z,11.05
2023-09-09T17:06:37.106Z,8.63
2023-09-09T17:09:04.858Z,8.50
2023-09-09T17:11:31.350Z,15.98
2023-09-09T17:13:57.829Z,15.50
2023-09-09T17:16:24.427Z,14.05
2023-09-09T17:18:51.032Z,12.95
2023-09-09T17:21:17.686Z,15.10
2023-09-09T17:23:44.337Z,15.27
2023-09-09T17:26:10.830Z,14.30
2023-09-09T17:28:37.374Z,14.35
2023-09-09T17:31:04.519Z,13.90
2023-09-09T17:33:31.049Z,12.50
2023-09-09T17:35:57.907Z,10.20
2023-09-09T17:38:24.406Z,16.23
2023-09-09T17:40:51.036Z,15.02
2023-09-09T17:43:17.543Z,12.15
2023-09-09T17:45:44.094Z,13.60
2023-09-09T17:48:10.675Z,15.18
2023-09-09T17:50:37.358Z,16.23
2023-09-09T17:53:04.059Z,12.98
2023-09-09T17:55:30.860Z,13.30
2023-09-09T17:57:57.358Z,18.00
2023-09-09T18:00:23.896Z,25.23
2023-09-09T18:02:50.481Z,30.30
2023-09-09T18:05:17.462Z,34.97
2023-09-09T18:07:45.183Z,39.50
2023-09-09T18:10:11.755Z,34.13
2023-09-09T18:12:39.466Z,22.17
2023-09-09T18:15:06.725Z,14.50
2023-09-09T18:17:33.499Z,15.10
2023-09-09T18:20:00.158Z,17.27
2023-09-09T18:22:27.223Z,19.13
2023-09-09T18:24:53.835Z,21.30
2023-09-09T18:27:20.301Z,19.87
2023-09-09T18:29:46.774Z,16.60
2023-09-09T18:32:13.252Z,15.85
2023-09-09T18:34:39.891Z,17.67
2023-09-09T18:37:06.651Z,19.98
2023-09-09T18:39:34.085Z,15.20
2023-09-09T18:42:00.708Z,13.65
2023-09-09T18:44:27.270Z,15.82
2023-09-09T18:46:55.647Z,18.58
2023-09-09T18:49:22.306Z,20.73
2023-09-09T18:51:48.961Z,13.50
2023-09-09T18:54:15.401Z,14.23
2023-09-09T18:56:41.883Z,13.07
2023-09-09T18:59:08.667Z,13.60
2023-09-09T19:01:35.884Z,19.05
2023-09-09T19:04:02.580Z,14.95
2023-09-09T19:06:29.194Z,16.50
2023-09-09T19:08:55.646Z,18.70
2023-09-09T19:11:22.114Z,16.85
2023-09-09T19:13:48.639Z,17.48
2023-09-09T19:16:15.282Z,15.00
2023-09-09T19:18:41.814Z,16.98
2023-09-09T19:21:08.347Z,15.30
2023-09-09T19:23:34.814Z,17.38
2023-09-09T19:26:01.351Z,13.95
2023-09-09T19:28:28.559Z,17.10
2023-09-09T19:30:55.093Z,15.95
2023-09-09T19:33:21.744Z,13.48
2023-09-09T19:35:48.473Z,15.07
2023-09-09T19:38:15.048Z,14.00
2023-09-09T19:40:41.573Z,22.45
2023-09-09T19:43:08.818Z,17.63
2023-09-09T19:45:35.579Z,17.27
2023-09-09T19:48:02.077Z,17.02
2023-09-09T19:50:29.142Z,18.17
2023-09-09T19:52:56.235Z,17.73
2023-09-09T19:55:22.880Z,15.70
2023-09-09T19:57:49.423Z,17.38
2023-09-09T20:00:16.292Z,18.52
2023-09-09T20:02:42.991Z,17.00
2023-09-09T20:05:10.385Z,17.17
2023-09-09T20:07:36.907Z,20.45
2023-09-09T20:10:11.353Z,16.63
2023-09-09T20:12:38.884Z,17.67
2023-09-09T20:15:06.003Z,18.52
2023-09-09T20:17:32.565Z,18.80
2023-09-09T20:19:59.398Z,18.25
2023-09-09T20:22:29.085Z,17.00
2023-09-09T20:24:56.053Z,16.10
2023-09-09T20:27:22.534Z,15.27
2023-09-09T20:29:49.017Z,16.30
2023-09-09T20:32:15.536Z,15.65
2023-09-09T20:34:42.789Z,16.50
2023-09-09T20:37:09.386Z,15.60
2023-09-09T20:39:35.969Z,17.33
2023-09-09T20:42:02.933Z,18.42
2023-09-09T20:44:30.794Z,15.27
2023-09-09T20:46:57.393Z,16.25
2023-09-09T20:49:23.947Z,17.05
2023-09-09T20:51:50.525Z,19.52
2023-09-09T20:54:17.064Z,18.30
2023-09-09T20:56:43.594Z,19.80
2023-09-09T20:59:10.221Z,17.58
2023-09-09T21:01:36.788Z,17.38
2023-09-09T21:04:04.224Z,19.27
2023-09-09T21:06:31.192Z,19.40
2023-09-09T21:08:57.797Z,18.20
2023-09-09T21:11:24.364Z,19.88
2023-09-09T21:13:50.957Z,21.15
2023-09-09T21:16:17.536Z,23.23
2023-09-09T21:18:47.294Z,21.05
2023-09-09T21:21:14.532Z,22.70
2023-09-09T21:23:42.006Z,24.85
2023-09-09T21:26:08.765Z,23.25
2023-09-09T21:28:35.465Z,25.88
2023-09-09T21:31:02.245Z,22.95
2023-09-09T21:33:28.926Z,21.90
2023-09-09T21:35:55.993Z,21.02
2023-09-09T21:38:22.434Z,18.73
2023-09-09T21:40:48.959Z,23.08
2023-09-09T21:43:17.106Z,21.80
2023-09-09T21:45:43.699Z,20.83
2023-09-09T21:48:11.521Z,24.77
2023-09-09T21:50:38.189Z,20.52
2023-09-09T21:53:04.953Z,20.10
2023-09-09T21:55:34.941Z,21.20
2023-09-09T21:58:01.434Z,22.77
2023-09-09T22:00:28.005Z,21.90
2023-09-09T22:02:54.794Z,21.20
2023-09-09T22:05:21.398Z,25.52
2023-09-09T22:07:47.960Z,23.38
2023-09-09T22:10:17.418Z,20.75
2023-09-09T22:12:43.891Z,23.17
2023-09-09T22:15:11.503Z,22.98
2023-09-09T22:17:39.024Z,20.92
2023-09-09T22:20:12.832Z,20.83
2023-09-09T22:22:40.815Z,22.38
2023-09-09T22:25:12.223Z,24.55
2023-09-09T22:27:39.121Z,26.90
2023-09-09T22:30:06.776Z,25.63
2023-09-09T22:32:33.620Z,25.80
2023-09-09T22:35:06.795Z,22.40
2023-09-09T22:37:35.426Z,22.85
2023-09-09T22:40:02.444Z,27.33
2023-09-09T22:42:29.006Z,26.30
2023-09-09T22:44:55.538Z,24.45
2023-09-09T22:47:23.192Z,26.33
2023-09-09T22:49:53.435Z,23.38
2023-09-09T22:52:20.474Z,29.00
2023-09-09T22:54:47.219Z,29.52
2023-09-09T22:57:14.660Z,21.90
2023-09-09T22:59:41.129Z,25.83
2023-09-09T23:02:07.742Z,24.38
2023-09-09T23:04:34.411Z,25.88
2023-09-09T23:07:01.062Z,21.17
2023-09-09T23:09:27.526Z,24.75
2023-09-09T23:11:53.985Z,23.33
2023-09-09T23:14:23.665Z,22.02
2023-09-09T23:16:50.860Z,20.52
2023-09-09T23:19:17.429Z,21.90
2023-09-09T23:21:43.875Z,26.05
2023-09-09T23:24:10.457Z,24.98
2023-09-09T23:26:37.805Z,22.27
2023-09-09T23:29:05.630Z,22.75
2023-09-09T23:31:36.074Z,23.80
2023-09-09T23:34:03.296Z,24.17
2023-09-09T23:36:29.959Z,22.88
2023-09-09T23:38:56.644Z,25.40
2023-09-09T23:41:23.181Z,23.50
2023-09-09T23:43:49.992Z,27.63
2023-09-09T23:46:16.831Z,23.60
2023-09-09T23:48:43.381Z,23.48
2023-09-09T23:51:10.112Z,23.42
2023-09-09T23:53:36.644Z,23.90
2023-09-09T23:56:03.389Z,26.00
2023-09-09T23:58:29.926Z,29.63
